Time;durP1;ratioP1;P1;durP2;ratioP2;P2;SDS_P1;SDS_P2;PMS_P1;PMS_P2;Temp;Humidity;BMP_temperature;BMP_pressure;BME280_temperature;BME280_humidity;BME280_pressure;Samples;Min_cycle;Max_cycle;Signal;HPM_P1;HPM_P2
2021/11/25 00:00:48;;;;;;;33.88;16.92;;;;;;;4.18;67.85;95364.91;5113700;27;20032;-78
2021/11/25 00:03:13;;;;;;;33.47;18.10;;;;;;;4.16;67.91;95353.84;5114258;28;20039;-79
2021/11/25 00:05:39;;;;;;;32.47;17.55;;;;;;;4.19;68.24;95358.03;5132070;27;20073;-79
2021/11/25 00:08:05;;;;;;;35.20;18.20;;;;;;;4.24;67.70;95364.59;5096538;28;20026;-77
2021/11/25 00:10:31;;;;;;;32.97;17.58;;;;;;;4.19;67.87;95361.41;5114159;28;20043;-77
2021/11/25 00:12:57;;;;;;;29.27;16.63;;;;;;;4.29;67.60;95364.38;5130853;28;20024;-78
2021/11/25 00:15:22;;;;;;;33.95;17.95;;;;;;;4.25;67.69;95355.97;5114030;28;20039;-78
2021/11/25 00:17:48;;;;;;;30.92;18.05;;;;;;;4.20;67.66;95360.50;5097019;28;20023;-78
2021/11/25 00:20:14;;;;;;;32.88;17.38;;;;;;;4.19;67.50;95366.56;5126017;28;20042;-79
2021/11/25 00:22:40;;;;;;;30.52;16.88;;;;;;;4.22;67.55;95363.00;5111627;28;20143;-79
2021/11/25 00:25:06;;;;;;;28.85;16.45;;;;;;;4.26;67.38;95361.94;5093488;28;20053;-79
2021/11/25 00:27:32;;;;;;;32.58;17.15;;;;;;;4.17;67.62;95350.38;5110344;28;20024;-78
2021/11/25 00:29:57;;;;;;;30.05;16.17;;;;;;;4.29;67.43;95359.25;5076396;28;20100;-79
2021/11/25 00:32:22;;;;;;;29.85;16.05;;;;;;;4.33;67.41;95367.63;5111909;28;20023;-79
2021/11/25 00:34:48;;;;;;;33.55;16.42;;;;;;;4.19;67.06;95347.72;5110581;28;20538;-79
2021/11/25 00:37:14;;;;;;;28.08;15.43;;;;;;;4.35;66.93;95366.66;5111465;28;20046;-79
2021/11/25 00:39:39;;;;;;;30.00;16.20;;;;;;;4.36;67.00;95354.59;5093212;28;20055;-79
2021/11/25 00:42:05;;;;;;;27.80;15.35;;;;;;;4.41;66.95;95370.66;5093493;28;20035;-78
2021/11/25 00:44:30;;;;;;;24.63;13.68;;;;;;;4.39;67.34;95365.56;5110272;28;20066;-78
2021/11/25 00:46:56;;;;;;;23.25;13.45;;;;;;;4.42;67.33;95368.00;5110176;28;20070;-78
2021/11/25 00:49:21;;;;;;;24.77;14.07;;;;;;;4.33;67.01;95347.88;5109977;28;20027;-79
2021/11/25 00:51:47;;;;;;;25.48;15.25;;;;;;;4.31;67.00;95349.69;5093312;28;20115;-78
2021/11/25 00:54:12;;;;;;;26.25;14.77;;;;;;;4.32;67.06;95365.94;5110026;28;20040;-77
2021/11/25 00:56:38;;;;;;;26.17;14.25;;;;;;;4.25;66.79;95350.81;5092734;28;20513;-78
2021/11/25 00:59:03;;;;;;;25.08;15.25;;;;;;;4.17;67.50;95358.09;5093211;28;20058;-79
2021/11/25 01:01:29;;;;;;;24.00;13.75;;;;;;;4.03;67.42;95340.75;5110222;28;20111;-79
2021/11/25 01:03:54;;;;;;;29.20;16.25;;;;;;;4.08;67.52;95355.13;5093328;28;20035;-79
2021/11/25 01:06:20;;;;;;;24.25;14.30;;;;;;;4.01;67.47;95347.72;5092747;28;20048;-79
2021/11/25 01:08:45;;;;;;;24.30;14.10;;;;;;;4.01;67.47;95339.16;5092959;28;20414;-79
2021/11/25 01:11:11;;;;;;;25.20;14.05;;;;;;;4.09;67.16;95343.94;5110386;28;20092;-79
2021/11/25 01:13:36;;;;;;;22.13;14.05;;;;;;;4.07;67.16;95346.59;5093438;28;20031;-79
2021/11/25 01:16:02;;;;;;;21.60;12.77;;;;;;;3.89;67.44;95332.88;5092665;28;20080;-79
2021/11/25 01:18:27;;;;;;;24.55;14.63;;;;;;;3.97;67.31;95340.22;5092976;28;20020;-78
2021/11/25 01:20:53;;;;;;;25.85;13.90;;;;;;;3.85;67.54;95326.25;5089671;27;20553;-78
2021/11/25 01:23:21;;;;;;;23.58;13.73;;;;;;;3.56;68.18;95300.19;5133936;27;20026;-79
2021/11/25 01:25:51;;;;;;;22.63;14.10;;;;;;;3.82;68.00;95331.53;5099873;27;20031;-79
2021/11/25 01:28:18;;;;;;;24.58;13.98;;;;;;;3.77;67.99;95329.16;5101101;27;20031;-79
2021/11/25 01:30:45;;;;;;;24.38;14.30;;;;;;;3.68;68.21;95319.34;5099985;27;20038;-79
2021/11/25 01:33:11;;;;;;;22.63;13.32;;;;;;;3.64;68.36;95332.41;5133973;27;20027;-78
2021/11/25 01:35:37;;;;;;;23.45;13.88;;;;;;;3.67;68.26;95327.09;5109444;27;20388;-79
2021/11/25 01:38:02;;;;;;;28.02;14.15;;;;;;;3.58;68.67;95324.06;5137071;27;20082;-79
2021/11/25 01:40:28;;;;;;;20.08;12.77;;;;;;;3.60;68.38;95328.31;5137354;27;20031;-79
2021/11/25 01:42:53;;;;;;;21.63;12.88;;;;;;;3.53;68.41;95325.19;5154422;27;20019;-79
2021/11/25 01:45:24;;;;;;;25.17;14.15;;;;;;;3.25;69.00;95315.38;5136901;27;20047;-79
2021/11/25 01:47:49;;;;;;;23.85;13.82;;;;;;;3.09;70.11;95334.06;5137827;27;20050;-79
2021/11/25 01:50:16;;;;;;;23.73;13.60;;;;;;;3.04;69.51;95333.44;5154248;27;20031;-79
2021/11/25 01:52:41;;;;;;;22.48;13.88;;;;;;;3.08;69.98;95334.94;5136897;27;20030;-79
2021/11/25 01:55:07;;;;;;;23.80;14.02;;;;;;;2.96;69.83;95314.16;5136640;27;20037;-78
2021/11/25 01:57:33;;;;;;;22.35;13.32;;;;;;;2.99;68.91;95319.13;5136627;27;20495;-78
2021/11/25 01:59:58;;;;;;;24.80;14.40;;;;;;;2.98;70.70;95327.72;5153969;27;20061;-78
2021/11/25 02:02:23;;;;;;;23.58;13.63;;;;;;;2.87;69.75;95320.50;5119507;27;20027;-78
2021/11/25 02:04:49;;;;;;;22.70;13.77;;;;;;;2.52;71.06;95284.41;5153564;27;20054;-78
2021/11/25 02:07:14;;;;;;;26.60;14.68;;;;;;;2.70;71.33;95328.94;5136736;27;20023;-76
2021/11/25 02:09:40;;;;;;;22.73;13.68;;;;;;;2.73;71.00;95318.56;5153792;27;20047;-76
2021/11/25 02:12:06;;;;;;;26.50;15.07;;;;;;;2.66;71.41;95319.72;5136607;27;20023;-76
2021/11/25 02:14:31;;;;;;;27.33;15.48;;;;;;;2.71;71.59;95322.94;5153681;27;20030;-76
2021/11/25 02:16:57;;;;;;;26.95;15.70;;;;;;;2.63;71.87;95307.88;5136243;27;20027;-75
2021/11/25 02:19:22;;;;;;;26.83;14.70;;;;;;;2.79;72.01;95309.78;5119039;27;20035;-75
2021/11/25 02:21:48;;;;;;;24.75;14.48;;;;;;;2.75;71.47;95295.38;5135024;27;20023;-75
2021/11/25 02:24:13;;;;;;;24.73;13.85;;;;;;;2.82;71.13;95300.19;5132554;27;20454;-75
2021/11/25 02:26:39;;;;;;;21.48;12.63;;;;;;;2.89;70.96;95298.16;5132726;27;20055;-75
2021/11/25 02:29:04;;;;;;;23.00;13.30;;;;;;;2.87;70.69;95299.97;5115413;27;20085;-75
2021/11/25 02:31:30;;;;;;;23.45;14.13;;;;;;;2.80;70.64;95289.16;5115444;27;20034;-75
2021/11/25 02:33:55;;;;;;;22.42;13.43;;;;;;;2.88;70.40;95299.91;5132399;27;20031;-75
2021/11/25 02:36:21;;;;;;;23.83;14.10;;;;;;;2.69;70.83;95279.38;5132647;27;20031;-75
2021/11/25 02:38:46;;;;;;;23.35;13.50;;;;;;;2.72;70.86;95301.50;5115259;27;20027;-75
2021/11/25 02:41:12;;;;;;;20.88;12.55;;;;;;;2.80;70.69;95309.69;5132511;27;20062;-77
2021/11/25 02:43:37;;;;;;;21.52;11.93;;;;;;;2.74;69.96;95302.25;5133479;27;20031;-76
2021/11/25 02:46:04;;;;;;;23.13;12.40;;;;;;;2.66;69.77;95297.47;5115304;27;20030;-78
2021/11/25 02:48:37;;;;;;;21.63;11.77;;;;;;;2.65;69.66;95305.25;5132493;27;20034;-78
2021/11/25 02:51:03;;;;;;;21.65;12.40;;;;;;;2.45;70.15;95291.56;5116274;27;20023;-78
2021/11/25 02:53:31;;;;;;;23.67;13.25;;;;;;;2.42;70.25;95291.69;5097924;27;20034;-77
2021/11/25 02:55:59;;;;;;;21.35;13.35;;;;;;;2.20;71.24;95289.22;5114965;27;20404;-77
2021/11/25 02:58:25;;;;;;;26.42;14.35;;;;;;;2.19;71.58;95291.81;5115379;27;20098;-77
2021/11/25 03:00:50;;;;;;;22.42;12.85;;;;;;;2.24;72.04;95290.72;5114905;27;20461;-77
2021/11/25 03:03:17;;;;;;;25.00;13.82;;;;;;;2.26;72.07;95289.81;5131953;27;20495;-77
2021/11/25 03:05:44;;;;;;;28.58;15.82;;;;;;;2.29;72.07;95285.41;5115063;27;20039;-77
2021/11/25 03:08:10;;;;;;;28.52;14.85;;;;;;;2.30;71.86;95281.94;5115287;27;20023;-77
2021/11/25 03:10:36;;;;;;;30.20;15.23;;;;;;;2.33;71.94;95281.81;5114978;27;20087;-77
2021/11/25 03:13:02;;;;;;;27.35;14.98;;;;;;;2.33;72.04;95292.06;5114582;27;20393;-77
2021/11/25 03:15:32;;;;;;;28.02;15.43;;;;;;;2.35;71.79;95292.00;5115125;27;20473;-77
2021/11/25 03:17:57;;;;;;;26.80;14.90;;;;;;;2.30;72.12;95287.06;5097992;27;20031;-77
2021/11/25 03:20:23;;;;;;;28.55;15.93;;;;;;;2.18;71.95;95272.22;5108511;28;20032;-77
2021/11/25 03:22:48;;;;;;;29.10;15.82;;;;;;;2.21;72.06;95279.78;5111197;28;20397;-77
2021/11/25 03:25:14;;;;;;;53.70;29.23;;;;;;;2.08;73.56;95276.91;5094557;28;20093;-76
2021/11/25 03:27:39;;;;;;;42.42;21.90;;;;;;;1.98;72.76;95253.41;5094218;28;20038;-77
2021/11/25 03:30:05;;;;;;;37.60;19.65;;;;;;;2.12;72.96;95275.88;5094326;28;20386;-77
2021/11/25 03:32:31;;;;;;;30.83;17.02;;;;;;;1.99;72.56;95252.50;5112092;28;20024;-77
2021/11/25 03:34:56;;;;;;;24.88;14.63;;;;;;;2.22;72.25;95284.00;5094148;28;20040;-77
2021/11/25 03:37:22;;;;;;;30.90;17.52;;;;;;;2.18;71.92;95282.47;5111090;28;20065;-77
2021/11/25 03:39:47;;;;;;;34.33;18.85;;;;;;;2.12;72.26;95285.31;5093774;28;20032;-77
2021/11/25 03:42:13;;;;;;;34.70;18.67;;;;;;;2.03;72.62;95275.41;5110491;28;20027;-77
2021/11/25 03:44:40;;;;;;;39.92;20.83;;;;;;;2.08;72.17;95278.63;5093838;28;20035;-77
2021/11/25 03:47:06;;;;;;;32.92;18.05;;;;;;;2.04;72.34;95262.56;5094409;28;20027;-77
2021/11/25 03:49:31;;;;;;;39.83;22.23;;;;;;;1.99;72.79;95259.34;5093898;28;20485;-77
2021/11/25 03:51:57;;;;;;;42.00;21.45;;;;;;;2.11;72.76;95279.31;5093780;28;20133;-77
2021/11/25 03:54:22;;;;;;;39.65;19.67;;;;;;;2.08;72.62;95269.22;5093966;28;20044;-77
2021/11/25 03:56:48;;;;;;;41.88;21.95;;;;;;;1.89;74.15;95252.94;5111956;28;20485;-77
2021/11/25 03:59:13;;;;;;;45.05;23.05;;;;;;;1.92;75.35;95278.44;5111835;28;20028;-77
2021/11/25 04:01:39;;;;;;;44.70;22.30;;;;;;;1.97;74.46;95250.88;5093596;28;20080;-76
2021/11/25 04:04:04;;;;;;;45.05;22.55;;;;;;;1.96;74.78;95264.59;5093473;28;20035;-77
2021/11/25 04:06:30;;;;;;;47.92;23.45;;;;;;;2.01;74.09;95258.41;5093822;28;20035;-77
2021/11/25 04:08:55;;;;;;;40.83;22.08;;;;;;;2.13;74.09;95267.28;5093547;28;20088;-78
2021/11/25 04:11:20;;;;;;;35.95;19.05;;;;;;;2.12;73.67;95245.13;5110504;28;20031;-78
2021/11/25 04:13:46;;;;;;;38.25;20.02;;;;;;;2.25;73.42;95260.78;5093443;28;20046;-78
2021/11/25 04:16:11;;;;;;;42.35;20.85;;;;;;;2.19;73.62;95249.06;5093722;28;20036;-78
2021/11/25 04:18:37;;;;;;;52.22;29.00;;;;;;;2.21;73.53;95249.84;5110219;28;20020;-78
2021/11/25 04:21:02;;;;;;;47.00;28.15;;;;;;;2.30;73.60;95251.19;5105134;28;20035;-78
2021/11/25 04:23:28;;;;;;;41.83;22.48;;;;;;;2.30;72.97;95256.31;5113720;28;20019;-78
2021/11/25 04:25:53;;;;;;;36.13;17.73;;;;;;;2.18;73.32;95242.28;5130873;28;20491;-78
2021/11/25 04:28:19;;;;;;;35.55;18.17;;;;;;;2.23;72.70;95252.38;5113647;28;20076;-78
2021/11/25 04:35:53;;;;;;;33.40;17.60;;;;;;;2.14;72.94;95253.56;5116298;28;20585;-79
2021/11/25 04:38:20;;;;;;;39.63;20.17;;;;;;;2.16;73.02;95241.53;5113948;28;20027;-78
2021/11/25 04:40:50;;;;;;;44.92;22.65;;;;;;;2.31;72.86;95267.38;5096923;28;20122;-78
2021/11/25 04:43:17;;;;;;;45.15;22.95;;;;;;;2.30;72.80;95252.91;5114218;28;20035;-78
2021/11/25 04:45:43;;;;;;;51.78;25.60;;;;;;;2.35;73.57;95261.25;5097086;28;20515;-78
2021/11/25 04:48:09;;;;;;;41.90;21.48;;;;;;;2.39;73.39;95262.75;5096870;28;20031;-78
2021/11/25 04:50:35;;;;;;;36.85;20.85;;;;;;;2.36;73.44;95257.78;5113792;28;20052;-78
2021/11/25 04:53:00;;;;;;;48.47;20.40;;;;;;;2.49;73.34;95266.59;5130850;27;20027;-78
2021/11/25 04:55:26;;;;;;;43.83;20.88;;;;;;;2.49;72.66;95252.94;5117045;27;20107;-78
2021/11/25 04:57:51;;;;;;;36.08;19.17;;;;;;;2.58;73.05;95263.63;5117514;27;20500;-78
2021/11/25 05:00:17;;;;;;;53.03;26.88;;;;;;;2.49;73.47;95251.22;5136014;27;20100;-78
2021/11/25 05:02:42;;;;;;;47.15;24.50;;;;;;;2.52;73.78;95253.63;5100420;27;20027;-78
2021/11/25 05:05:08;;;;;;;49.47;23.60;;;;;;;2.47;73.49;95242.75;5134729;27;20554;-78
2021/11/25 05:07:33;;;;;;;38.22;19.15;;;;;;;2.58;73.47;95257.66;5100386;27;20480;-78
2021/11/25 05:09:59;;;;;;;34.58;17.50;;;;;;;2.64;73.43;95255.66;5117141;27;20476;-78
2021/11/25 05:12:24;;;;;;;31.33;16.23;;;;;;;2.70;73.75;95246.84;5134594;27;20027;-78
2021/11/25 05:14:50;;;;;;;22.35;12.15;;;;;;;2.60;73.44;95250.75;5117237;27;20024;-79
2021/11/25 05:17:15;;;;;;;24.48;12.23;;;;;;;2.73;73.51;95251.88;5117185;27;20030;-79
2021/11/25 05:19:41;;;;;;;23.80;12.93;;;;;;;2.81;73.28;95254.88;5116461;27;20424;-78
2021/11/25 05:22:06;;;;;;;25.35;12.90;;;;;;;2.78;73.71;95249.06;5096847;28;20024;-78
2021/11/25 05:24:32;;;;;;;26.33;12.45;;;;;;;2.90;72.80;95258.78;5115256;28;20028;-77
2021/11/25 05:26:57;;;;;;;23.02;11.75;;;;;;;2.90;73.08;95248.53;5113595;28;20031;-74
2021/11/25 05:29:23;;;;;;;23.17;11.98;;;;;;;2.97;72.48;95254.19;5084569;27;20022;-75
2021/11/25 05:31:49;;;;;;;23.95;12.40;;;;;;;3.04;72.54;95258.97;5099418;27;20031;-78
2021/11/25 05:34:16;;;;;;;21.83;11.82;;;;;;;3.00;72.20;95241.22;5096215;28;20109;-79
2021/11/25 05:36:42;;;;;;;19.83;11.15;;;;;;;3.11;71.95;95256.94;5096848;28;20035;-79
2021/11/25 05:39:08;;;;;;;20.75;11.60;;;;;;;3.09;71.76;95244.22;5110533;28;20039;-79
2021/11/25 05:41:33;;;;;;;19.52;10.25;;;;;;;3.13;71.32;95255.16;5113362;28;20436;-79
2021/11/25 05:43:59;;;;;;;21.35;12.10;;;;;;;3.00;71.77;95228.38;5114425;28;20039;-79
2021/11/25 05:46:24;;;;;;;18.17;11.05;;;;;;;3.20;71.41;95258.25;5130165;27;20032;-79
2021/11/25 05:48:50;;;;;;;21.40;12.05;;;;;;;3.09;71.60;95244.22;5096183;28;20386;-79
2021/11/25 05:51:15;;;;;;;18.80;11.30;;;;;;;3.24;71.56;95254.66;5115364;27;20031;-78
2021/11/25 05:53:41;;;;;;;22.25;10.38;;;;;;;3.21;71.45;95252.25;5116477;27;20083;-79
2021/11/25 05:56:06;;;;;;;17.15;9.55;;;;;;;3.28;71.07;95263.88;5116043;27;20023;-79
2021/11/25 05:58:32;;;;;;;19.48;10.10;;;;;;;3.30;70.70;95267.19;5117161;27;20034;-79
2021/11/25 06:00:57;;;;;;;16.88;9.52;;;;;;;3.28;70.78;95261.31;5133548;27;20413;-79
2021/11/25 06:03:24;;;;;;;22.60;11.05;;;;;;;3.31;71.04;95261.97;5116251;27;20087;-78
2021/11/25 06:05:49;;;;;;;20.40;11.07;;;;;;;3.21;71.20;95235.09;5132552;27;20078;-79
2021/11/25 06:08:15;;;;;;;18.98;11.25;;;;;;;3.41;71.05;95259.81;5108025;28;20489;-79
2021/11/25 06:10:40;;;;;;;22.85;11.25;;;;;;;3.45;71.08;95265.63;5112558;28;20043;-78
2021/11/25 06:13:05;;;;;;;21.08;11.98;;;;;;;3.38;71.13;95247.13;5078817;28;20512;-78
2021/11/25 06:15:31;;;;;;;22.00;12.23;;;;;;;3.47;71.26;95269.78;5112337;28;20039;-79
2021/11/25 06:17:56;;;;;;;21.55;11.25;;;;;;;3.53;70.84;95266.09;5095474;28;20020;-79
2021/11/25 06:20:22;;;;;;;22.45;11.82;;;;;;;3.60;70.79;95284.66;5112537;28;20035;-79
2021/11/25 06:22:49;;;;;;;19.90;12.13;;;;;;;3.55;70.75;95259.16;5112388;28;20020;-79
2021/11/25 06:25:15;;;;;;;18.27;11.15;;;;;;;3.68;70.37;95265.38;5113187;28;20043;-79
2021/11/25 06:27:41;;;;;;;21.25;11.73;;;;;;;3.69;70.88;95273.91;5095417;28;20216;-78
2021/11/25 06:30:11;;;;;;;23.70;11.85;;;;;;;3.75;70.52;95277.00;5095419;28;20028;-79
2021/11/25 06:32:38;;;;;;;22.70;11.77;;;;;;;3.76;70.53;95276.13;5112475;28;20417;-78
2021/11/25 06:35:09;;;;;;;24.00;13.07;;;;;;;3.83;70.40;95279.22;5095163;28;20027;-79
2021/11/25 06:37:44;;;;;;;21.40;12.05;;;;;;;3.90;70.41;95275.44;5117314;27;20099;-79
2021/11/25 06:40:10;;;;;;;23.15;12.02;;;;;;;3.95;70.26;95281.16;5130683;27;20488;-78
2021/11/25 06:42:36;;;;;;;20.20;12.20;;;;;;;3.88;70.06;95251.53;5096600;27;20084;-81
2021/11/25 06:45:01;;;;;;;29.67;16.08;;;;;;;4.03;70.18;95273.91;5094274;28;20043;-74
2021/11/25 06:47:27;;;;;;;51.15;31.08;;;;;;;4.10;69.86;95278.75;5127569;27;20406;-79
2021/11/25 06:49:52;;;;;;;36.53;23.85;;;;;;;4.08;69.60;95265.16;5094513;28;20027;-78
2021/11/25 06:52:18;;;;;;;36.22;21.98;;;;;;;4.13;69.41;95269.16;5103840;28;20485;-76
2021/11/25 06:54:43;;;;;;;30.50;15.90;;;;;;;4.18;69.26;95259.47;5112789;27;20059;-79
2021/11/25 06:57:09;;;;;;;26.70;14.70;;;;;;;4.32;68.96;95274.19;5117370;27;20030;-78
2021/11/25 06:59:34;;;;;;;42.92;24.45;;;;;;;4.39;68.60;95272.13;5120645;27;20508;-76
2021/11/25 07:02:00;;;;;;;51.38;30.52;;;;;;;4.39;68.32;95275.53;5112605;27;20031;-76
2021/11/25 07:04:25;;;;;;;23.02;13.85;;;;;;;4.36;67.83;95275.69;5094389;28;20055;-75
2021/11/25 07:06:51;;;;;;;20.90;11.90;;;;;;;4.37;67.73;95272.19;5111566;28;20032;-75
2021/11/25 07:09:17;;;;;;;21.15;12.88;;;;;;;4.45;67.81;95270.06;5094454;28;20040;-76
2021/11/25 07:11:42;;;;;;;31.50;19.08;;;;;;;4.51;67.89;95268.91;5099916;27;20038;-76
2021/11/25 07:14:09;;;;;;;31.15;19.48;;;;;;;4.46;67.57;95240.88;5096942;27;20027;-76
2021/11/25 07:16:37;;;;;;;24.83;14.77;;;;;;;4.63;67.27;95264.91;5114245;27;20023;-73
2021/11/25 07:19:03;;;;;;;36.65;21.95;;;;;;;4.65;67.64;95252.75;5115119;27;20023;-77
2021/11/25 07:21:29;;;;;;;20.10;12.00;;;;;;;4.64;66.21;95251.94;5095823;27;20106;-77
2021/11/25 07:23:54;;;;;;;18.40;10.20;;;;;;;4.57;66.30;95242.88;5086042;27;20123;-78
2021/11/25 07:26:20;;;;;;;25.88;14.45;;;;;;;4.67;66.90;95248.38;5115456;27;20027;-77
2021/11/25 07:28:45;;;;;;;36.90;18.67;;;;;;;4.86;66.92;95259.34;5124327;27;20031;-75
2021/11/25 07:31:11;;;;;;;17.40;10.40;;;;;;;4.82;65.48;95241.56;5131804;27;20069;-76
2021/11/25 07:33:36;;;;;;;24.20;15.40;;;;;;;4.93;65.78;95245.25;5114157;27;20023;-76
2021/11/25 07:36:02;;;;;;;25.17;14.30;;;;;;;5.04;66.10;95246.41;5131538;27;20031;-76
2021/11/25 07:38:27;;;;;;;22.88;12.93;;;;;;;5.14;66.02;95255.31;5131581;27;20061;-76
2021/11/25 07:40:53;;;;;;;18.30;11.30;;;;;;;5.03;65.40;95260.19;5131503;27;20450;-76
2021/11/25 07:43:18;;;;;;;16.80;10.27;;;;;;;5.09;65.64;95260.69;5114126;27;20023;-76
2021/11/25 07:45:44;;;;;;;20.95;10.20;;;;;;;5.14;65.49;95257.88;5131572;27;20092;-76
2021/11/25 07:48:10;;;;;;;12.98;8.63;;;;;;;5.13;64.42;95257.06;5097343;27;20035;-76
2021/11/25 07:50:37;;;;;;;29.63;10.93;;;;;;;5.10;64.45;95252.06;5110164;28;20126;-76
2021/11/25 07:53:03;;;;;;;17.90;9.90;;;;;;;5.11;64.51;95250.31;5111876;27;20066;-76
2021/11/25 07:55:28;;;;;;;15.60;8.80;;;;;;;5.12;64.21;95259.69;5109985;28;20059;-76
2021/11/25 07:57:54;;;;;;;12.70;7.82;;;;;;;5.15;64.04;95249.22;5090197;28;20479;-76
2021/11/25 08:00:24;;;;;;;13.07;7.60;;;;;;;4.98;63.44;95246.75;5106731;27;20051;-75
2021/11/25 08:02:50;;;;;;;14.85;8.88;;;;;;;5.14;64.07;95250.16;5108540;27;20413;-75
2021/11/25 08:05:16;;;;;;;17.88;9.98;;;;;;;5.14;64.31;95238.09;5117856;27;20056;-75
2021/11/25 08:07:42;;;;;;;15.10;8.77;;;;;;;5.28;64.17;95239.91;5110979;28;20034;-75
2021/11/25 08:10:09;;;;;;;14.73;8.02;;;;;;;5.26;63.03;95236.59;5093611;28;20031;-75
2021/11/25 08:12:35;;;;;;;13.45;7.80;;;;;;;5.22;62.98;95224.81;5076595;28;20024;-74
2021/11/25 08:15:00;;;;;;;14.50;8.82;;;;;;;5.21;63.01;95219.72;5111399;28;20378;-75
2021/11/25 08:17:26;;;;;;;12.25;7.43;;;;;;;5.24;63.17;95222.16;5111428;28;20020;-75
2021/11/25 08:19:51;;;;;;;14.18;8.65;;;;;;;5.26;63.36;95236.59;5123612;28;20038;-75
2021/11/25 08:22:17;;;;;;;15.52;9.30;;;;;;;5.36;63.63;95229.19;5111481;28;20043;-75
2021/11/25 08:24:43;;;;;;;14.60;8.55;;;;;;;5.39;62.59;95234.16;5111371;28;20085;-75
2021/11/25 08:27:10;;;;;;;13.95;8.48;;;;;;;5.23;63.11;95205.84;5093290;28;20114;-73
2021/11/25 08:29:35;;;;;;;14.20;8.30;;;;;;;5.35;63.17;95227.53;5115567;27;20107;-74
2021/11/25 08:32:01;;;;;;;16.23;8.90;;;;;;;5.39;62.93;95231.59;5100659;27;20423;-74
2021/11/25 08:34:26;;;;;;;18.73;10.30;;;;;;;5.36;63.00;95222.28;5135062;27;20031;-74
2021/11/25 08:36:52;;;;;;;18.63;10.93;;;;;;;5.46;63.47;95232.06;5134925;27;20080;-74
2021/11/25 08:39:18;;;;;;;15.82;8.45;;;;;;;5.45;62.92;95220.94;5113387;27;20028;-75
2021/11/25 08:41:44;;;;;;;14.32;9.63;;;;;;;5.42;62.69;95208.22;5132545;27;20030;-75
2021/11/25 08:44:09;;;;;;;16.65;10.27;;;;;;;5.63;62.93;95208.78;5102896;28;20027;-75
2021/11/25 08:46:34;;;;;;;17.85;10.38;;;;;;;5.65;62.90;95199.19;5097190;28;20026;-74
2021/11/25 08:49:00;;;;;;;14.65;8.75;;;;;;;5.63;61.81;95202.75;5126618;27;20421;-74
2021/11/25 08:51:28;;;;;;;14.38;8.60;;;;;;;5.64;62.14;95194.13;5133167;27;20403;-75
2021/11/25 08:53:53;;;;;;;15.77;9.55;;;;;;;5.55;62.47;95177.44;5095385;28;20035;-74
2021/11/25 08:56:19;;;;;;;15.68;9.43;;;;;;;5.67;61.96;95197.34;5112889;28;20027;-75
2021/11/25 08:58:44;;;;;;;13.65;8.70;;;;;;;5.67;61.99;95184.47;5118272;27;20027;-74
2021/11/25 09:01:10;;;;;;;16.75;10.00;;;;;;;5.75;62.13;95202.09;5101178;27;20027;-75
2021/11/25 09:03:35;;;;;;;15.70;9.27;;;;;;;5.69;61.62;95192.13;5116276;27;20058;-75
2021/11/25 09:06:00;;;;;;;14.00;8.93;;;;;;;5.68;61.40;95185.28;5133243;27;20058;-75
2021/11/25 09:08:26;;;;;;;18.27;10.20;;;;;;;5.60;62.02;95189.16;5133964;27;20038;-75
2021/11/25 09:10:52;;;;;;;17.92;9.77;;;;;;;5.58;61.71;95191.00;5116668;27;20038;-75
2021/11/25 09:13:17;;;;;;;14.95;8.63;;;;;;;5.51;61.49;95178.53;5115058;27;20027;-75
2021/11/25 09:15:43;;;;;;;16.08;9.68;;;;;;;5.51;61.87;95181.94;5116720;27;22352;-75
2021/11/25 09:18:08;;;;;;;14.73;8.85;;;;;;;5.40;61.78;95170.59;5099687;27;20524;-75
2021/11/25 09:20:34;;;;;;;16.88;9.85;;;;;;;5.41;62.02;95174.84;5116750;27;20031;-75
2021/11/25 09:23:04;;;;;;;14.38;8.75;;;;;;;5.50;61.97;95180.28;5116706;27;20026;-75
2021/11/25 09:25:30;;;;;;;17.98;9.80;;;;;;;5.54;62.22;95183.50;5116808;27;20110;-74
2021/11/25 09:27:55;;;;;;;20.20;10.98;;;;;;;5.58;62.17;95174.69;5099618;27;20129;-75
2021/11/25 09:30:21;;;;;;;16.00;9.63;;;;;;;5.71;62.35;95177.38;5116564;27;20445;-74
2021/11/25 09:32:47;;;;;;;20.40;9.77;;;;;;;5.73;62.04;95166.06;5116320;27;20027;-76
2021/11/25 09:35:13;;;;;;;19.27;8.93;;;;;;;5.80;62.37;95162.22;5116597;27;20031;-75
2021/11/25 09:37:38;;;;;;;17.38;10.50;;;;;;;5.75;61.98;95159.06;5116301;27;20132;-75
2021/11/25 09:40:09;;;;;;;15.18;9.18;;;;;;;5.79;61.41;95172.59;5115462;27;20034;-75
2021/11/25 09:42:34;;;;;;;16.80;9.48;;;;;;;5.79;61.47;95173.47;5117165;27;20027;-75
2021/11/25 09:45:02;;;;;;;18.83;10.27;;;;;;;5.71;61.63;95142.16;5099281;27;20499;-75
2021/11/25 09:47:28;;;;;;;15.57;9.50;;;;;;;5.64;61.14;95140.84;5116553;27;20096;-75
2021/11/25 09:49:53;;;;;;;15.90;9.07;;;;;;;5.55;61.84;95162.81;5116103;27;20472;-75
2021/11/25 09:52:19;;;;;;;16.73;9.98;;;;;;;5.56;61.91;95145.59;5132116;27;20026;-75
2021/11/25 09:54:44;;;;;;;15.90;9.70;;;;;;;5.75;62.52;95161.66;5126567;27;20043;-74
2021/11/25 09:57:10;;;;;;;15.77;9.77;;;;;;;5.83;62.30;95158.63;5129198;27;20031;-74
2021/11/25 09:59:35;;;;;;;17.85;10.52;;;;;;;5.93;62.56;95164.91;5107237;27;20019;-74
2021/11/25 10:02:01;;;;;;;19.90;12.02;;;;;;;6.01;62.39;95161.91;5121132;27;20023;-73
2021/11/25 10:04:27;;;;;;;17.80;11.85;;;;;;;6.10;61.71;95156.22;5121112;27;20154;-73
2021/11/25 10:06:57;;;;;;;16.23;9.93;;;;;;;6.10;61.21;95157.94;5119264;27;20059;-73
2021/11/25 10:09:37;;;;;;;16.00;10.27;;;;;;;6.07;60.78;95151.22;5096730;28;20180;-73
2021/11/25 10:12:33;;;;;;;19.85;10.98;;;;;;;6.05;60.86;95155.66;5094674;28;20035;-73
2021/11/25 10:14:59;;;;;;;13.73;9.27;;;;;;;6.02;60.90;95148.94;5095851;27;20044;-73
2021/11/25 10:17:45;;;;;;;14.75;9.05;;;;;;;5.94;61.16;95140.00;5113995;27;20038;-73
2021/11/25 10:20:15;;;;;;;15.60;8.95;;;;;;;5.78;61.20;95140.03;5127990;27;20020;-73
2021/11/25 10:23:01;;;;;;;15.95;10.27;;;;;;;5.92;61.42;95132.31;5133722;27;20564;-73
2021/11/25 10:25:56;;;;;;;15.82;9.73;;;;;;;5.82;61.17;95139.75;5119306;27;20038;-73
2021/11/25 10:28:43;;;;;;;15.88;9.75;;;;;;;5.74;61.06;95129.06;5087806;27;20043;-73
2021/11/25 10:31:13;;;;;;;15.75;8.65;;;;;;;5.83;60.96;95123.38;5110066;27;20501;-73
2021/11/25 10:33:48;;;;;;;12.43;8.05;;;;;;;5.95;61.15;95121.84;5110873;28;20485;-73
2021/11/25 10:38:56;;;;;;;15.20;9.98;;;;;;;5.98;60.97;95118.25;5094883;28;20076;-73
2021/11/25 10:41:22;;;;;;;15.20;9.88;;;;;;;6.03;61.33;95113.63;5097161;28;20027;-73
2021/11/25 10:44:23;;;;;;;17.15;9.15;;;;;;;5.92;60.86;95111.66;5094389;28;20504;-73
2021/11/25 10:46:59;;;;;;;15.68;10.23;;;;;;;5.99;60.97;95117.31;5079044;28;20074;-73
2021/11/25 10:49:48;;;;;;;15.65;9.88;;;;;;;6.04;60.68;95104.97;5094913;28;20047;-73
2021/11/25 10:52:21;;;;;;;20.38;12.63;;;;;;;6.11;61.05;95098.53;5112513;28;20027;-73
2021/11/25 10:54:49;;;;;;;18.27;11.57;;;;;;;6.17;60.89;95097.34;5111319;28;20481;-73
2021/11/25 10:57:15;;;;;;;22.73;13.25;;;;;;;6.22;61.01;95093.53;5094077;28;20056;-73
2021/11/25 10:59:43;;;;;;;18.35;11.70;;;;;;;6.15;60.67;95081.94;5111151;28;20404;-73
2021/11/25 11:02:23;;;;;;;22.17;13.00;;;;;;;6.16;60.81;95099.09;5111162;28;20044;-73
2021/11/25 11:04:49;;;;;;;24.38;13.80;;;;;;;6.15;60.78;95097.41;5110838;28;20544;-73
2021/11/25 11:07:32;;;;;;;21.42;12.45;;;;;;;6.07;61.02;95089.31;5093966;28;20118;-73
2021/11/25 11:09:57;;;;;;;18.52;12.02;;;;;;;6.06;60.77;95086.84;5095110;28;20382;-73
2021/11/25 11:13:01;;;;;;;17.48;11.52;;;;;;;6.05;60.75;95093.75;5093872;28;20110;-73
2021/11/25 11:20:44;;;;;;;36.58;16.48;;;;;;;6.10;61.01;95084.00;5111904;28;20027;-73
2021/11/25 11:23:09;;;;;;;31.63;16.15;;;;;;;6.18;60.99;95068.84;5078265;28;20046;-73
2021/11/25 11:25:36;;;;;;;14.55;9.98;;;;;;;6.02;61.05;95063.81;5110786;28;20024;-73
2021/11/25 11:28:04;;;;;;;19.73;11.90;;;;;;;5.91;61.33;95068.75;5093871;28;20024;-73
2021/11/25 11:30:29;;;;;;;23.08;12.85;;;;;;;5.91;61.27;95067.94;5110698;28;20042;-73
2021/11/25 11:32:55;;;;;;;24.40;13.90;;;;;;;6.03;61.27;95069.78;5093452;28;20023;-73
2021/11/25 11:35:24;;;;;;;17.83;10.90;;;;;;;6.06;61.59;95068.78;5110577;28;20027;-73
2021/11/25 11:37:54;;;;;;;19.23;11.18;;;;;;;6.03;61.54;95046.59;5077208;28;20051;-73